Terminal Aerodrome Forecast
Issued by NWS

Home | Current Version | Previous Version | Text Only | Print | Product List | Glossary On
Versions: 1 2 3 4 5 6 7 8 9 10 11 12 13 14 15
995
FTUS45 KFGZ 250544
TAFSEZ
TAF
KSEZ 250544Z 2506/2606 20010KT P6SM SCT130 BKN250
     FM251700 22010G20KT P6SM SCT130
     FM251900 27022G35KT P6SM SCT040 OVC070
     FM260300 02012KT P6SM SCT050=

USA.gov is the U.S. government's official web portal to all federal, state and local government web resources and services.